1A5

Macon County Airport

Franklin, North Carolina, USA
METAR K1A5 210915Z AUTO 00000KT 10SM SCT008 BKN044 OVC120 19/19 A2998 RMK AO2 T01930186
Observed Flight Rules
Jul-21 @ 09:15 UTC (27 minutes ago) Visual Flight Rules
Visibility Clouds
10 miles
  • Scattered at 800' AGL
  • Broken at 4,400' AGL
  • Overcast at 12,000' AGL
Temperatures Readings
Current 19°C / 66°F
Dewpoint 19°C / 66°F
Humidity 100%
Altimeter 29.98" Hg
Pressure 1015 hPa
Elevation 616
METAR K1A5 210915Z AUTO 00000KT 10SM SCT008 BKN044 OVC120 19/19 A2998 RMK AO2 T01930186
Observed Flight Rules
Jul-21 @ 09:15 UTC
(27 minutes ago)
VFR
Clouds
  • Scattered at 800' AGL
  • Broken at 4,400' AGL
  • Overcast at 12,000' AGL
Temperature Dewpoint
19°C / 66°F 19°C / 66°F
Humidity Altimeter Pressure
100% 29.98" Hg 1015 hPa